Weather History for 94578 - September, 2013

Change the Weather History Date:

Friday, September 6, 2013

  Actual Average Record
Temperature  
Mean Temperature 62 °F -  
Max Temperature 73 °F 76 °F - ()
Min Temperature 51 °F 56 °F - ()
Degree Days  
Heating Degree Days 3    
Growing Degree Days 12 (Base 50)    
Moisture  
Dew Point 52 °F    
Average Humidity 71    
Maximum Humidity 94    
Minimum Humidity 37    
Precipitation  
Precipitation 0.00 in 0.06 in - ()
Sea Level Pressure  
Sea Level Pressure 30.34 in    
Wind  
Wind Speed 8 mph ()    
Max Wind Speed 12 mph    
Max Gust Speed -    
Visibility 9.5 miles    
Events      
T = Trace of Precipitation, MM = Missing Value Source: Averaged Metar Reports

Daily Weather History Graph

Daily Weather History Graph

Search for Another Location

Airport or City:

Trip Planner

Search our weather history database for the weather conditions in past years. The results will help you decide how hot, cold, wet, or windy it might be!

Date:

Astronomy

Sep. 06, 2013 Rise Set
Actual Time 5:55 AM AEST 5:36 PM AEST
Civil Twilight 5:32 AM AEST 5:59 PM AEST
Nautical Twilight 5:05 AM AEST 6:26 PM AEST
Astronomical Twilight 4:38 AM AEST 6:53 PM AEST
Moon 5:58 AM AEST (9/6) 6:19 PM AEST (9/6)
Length of Visible Light 12h 27m
Length of Day
11h 40m
New Moon, 0% of the Moon is Illuminated
Sep 6
New Moon
Sep 13
First Quarter
Sep 19
Full
Sep 27
Last Quarter
Oct 5
New

Hourly Weather History & Observations

Time (AEST) Temp. Dew Point Humidity Pressure Visibility Wind Dir Wind Speed Gust Speed Precip Events Conditions
12:00 AM 56 °F 52 °F 80% 30.38 in 19 mi SSW 5.8 mph - -   Smoke
12:00 AM 55.4 °F 51.8 °F 88% 30.36 in - SSW 5.8 mph - N/A   Clear
12:30 AM 55.4 °F 51.8 °F 88% 30.36 in - SSW 4.6 mph - N/A   Clear
1:00 AM 54 °F 50 °F 83% 30.37 in - SSW 6.9 mph - -  
1:00 AM 53.6 °F 50.0 °F 88% 30.36 in - SSW 6.9 mph - N/A   Clear
1:30 AM 53.6 °F 51.8 °F 94% 30.36 in - SSW 8.1 mph - N/A   Clear
2:00 AM 53.6 °F 50.0 °F 88% 30.33 in - SSW 6.9 mph - N/A   Clear
2:30 AM 55.4 °F 50.0 °F 82% 30.33 in - SSW 8.1 mph - N/A   Clear
3:00 AM 54 °F 50 °F 80% 30.34 in 19 mi SSW 8.1 mph - -   Haze
3:00 AM 53.6 °F 50.0 °F 88% 30.33 in - SSW 8.1 mph - N/A   Clear
3:30 AM 53.6 °F 50.0 °F 88% 30.33 in - SSW 9.2 mph - N/A   Clear
4:00 AM 53 °F 49 °F 83% 30.34 in - SSW 9.2 mph - -  
4:00 AM 51.8 °F 50.0 °F 94% 30.33 in - SSW 9.2 mph - N/A   Clear
4:30 AM 51.8 °F 48.2 °F 88% 30.33 in - SSW 9.2 mph - N/A   Clear
5:00 AM 51.8 °F 48.2 °F 88% 30.33 in - SSW 9.2 mph - N/A   Clear
5:30 AM 51.8 °F 48.2 °F 88% 30.36 in 6.2 mi SSW 9.2 mph - N/A   Partly Cloudy
6:00 AM 52 °F 49 °F 86% 30.37 in 9 mi SSW 10.4 mph - -   Haze
6:00 AM 51.8 °F 50.0 °F 94% 30.36 in 6.2 mi SSW 10.4 mph - N/A   Partly Cloudy
6:30 AM 53.6 °F 50.0 °F 88% 30.36 in - SSW 10.4 mph - N/A   Clear
7:00 AM 56 °F 51 °F 78% 30.39 in - SSW 9.2 mph - -  
7:00 AM 55.4 °F 51.8 °F 88% 30.39 in - SSW 9.2 mph - N/A   Clear
7:30 AM 59.0 °F 51.8 °F 77% 30.39 in 6.2 mi SSW 10.4 mph - N/A   Partly Cloudy
8:00 AM 60.8 °F 51.8 °F 72% 30.39 in 6.2 mi SSW 10.4 mph - N/A   Partly Cloudy
8:30 AM 64.4 °F 51.8 °F 64% 30.39 in 6.2 mi SSW 10.4 mph - N/A   Partly Cloudy
9:00 AM 66 °F 52 °F 50% 30.41 in 12 mi SW 10.4 mph - -   Smoke
9:00 AM 66.2 °F 51.8 °F 60% 30.39 in 6.2 mi SW 10.4 mph - N/A   Partly Cloudy
9:30 AM 68.0 °F 51.8 °F 56% 30.39 in 6.2 mi SW 9.2 mph - N/A   Partly Cloudy
10:00 AM 70 °F 52 °F 42% 30.40 in - SSW 6.9 mph - -  
10:00 AM 69.8 °F 51.8 °F 53% 30.39 in 6.2 mi SSW 6.9 mph - N/A   Partly Cloudy
10:30 AM 69.8 °F 51.8 °F 53% 30.39 in 6.2 mi NNW 5.8 mph - N/A   Partly Cloudy
11:00 AM 69.8 °F 51.8 °F 53% 30.36 in 6.2 mi NNE 6.9 mph - N/A   Partly Cloudy
11:30 AM 73.4 °F 51.8 °F 47% 30.36 in 6.2 mi North 10.4 mph - N/A   Partly Cloudy
12:00 PM 72 °F 51 °F 37% 30.35 in 16 mi North 10.4 mph - -   Smoke
12:00 PM 71.6 °F 51.8 °F 50% 30.33 in 6.2 mi North 10.4 mph - N/A   Partly Cloudy
12:30 PM 73.4 °F 51.8 °F 47% 30.33 in 6.2 mi NNE 10.4 mph - N/A   Partly Cloudy
1:00 PM 73.4 °F 53.6 °F 50% 30.30 in 6.2 mi NNE 11.5 mph - N/A   Partly Cloudy
1:30 PM 71.6 °F 51.8 °F 50% 30.30 in 6.2 mi NNE 11.5 mph - N/A   Partly Cloudy
2:00 PM 71.6 °F 53.6 °F 53% 30.30 in - NNE 10.4 mph - N/A   Clear
2:30 PM 71.6 °F 53.6 °F 53% 30.27 in - NNE 11.5 mph - N/A   Clear
3:00 PM 71 °F 53 °F 43% 30.30 in 16 mi NNE 10.4 mph - -   Smoke
3:00 PM 71.6 °F 53.6 °F 53% 30.27 in - NNE 10.4 mph - N/A   Clear
3:30 PM 71.6 °F 55.4 °F 57% 30.27 in - NNE 10.4 mph - N/A   Clear
4:00 PM 69.8 °F 55.4 °F 60% 30.27 in - NNE 11.5 mph - N/A   Clear
4:30 PM 68.0 °F 55.4 °F 64% 30.27 in - NNE 10.4 mph - N/A   Clear
5:00 PM 68.0 °F 57.2 °F 68% 30.27 in - NNE 10.4 mph - N/A   Clear
5:30 PM 64.4 °F 55.4 °F 73% 30.30 in - North 9.2 mph - N/A   Clear
6:00 PM 63 °F 54 °F 65% 30.31 in 16 mi North 10.4 mph - -   Smoke
6:00 PM 62.6 °F 53.6 °F 72% 30.30 in - North 10.4 mph - N/A   Clear
6:30 PM 62.6 °F 53.6 °F 72% 30.30 in - North 10.4 mph - N/A   Clear
7:00 PM 63 °F 52 °F 59% 30.33 in - NNE 9.2 mph - -  
7:00 PM 62.6 °F 51.8 °F 68% 30.30 in - NNE 9.2 mph - N/A   Clear
7:30 PM 62.6 °F 53.6 °F 72% 30.33 in - NNE 9.2 mph - N/A   Clear
8:00 PM 62.6 °F 53.6 °F 72% 30.33 in - NNE 9.2 mph - N/A   Clear
8:30 PM 62.6 °F 53.6 °F 72% 30.33 in - NNE 9.2 mph - N/A   Clear
9:00 PM 61 °F 53 °F 68% 30.34 in 19 mi NNE 9.2 mph - -   Partly Cloudy
9:00 PM 60.8 °F 53.6 °F 77% 30.33 in - NNE 9.2 mph - N/A   Clear
9:30 PM 60.8 °F 53.6 °F 77% 30.33 in - North 9.2 mph - N/A   Clear
10:00 PM 60 °F 54 °F 74% 30.35 in - West 5.8 mph - -  
10:00 PM 60.8 °F 53.6 °F 77% 30.33 in - West 5.8 mph - N/A   Clear
10:30 PM 59.0 °F 53.6 °F 82% 30.33 in - WNW 4.6 mph - N/A   Clear
11:00 PM 57.2 °F 51.8 °F 82% 30.33 in - NW 5.8 mph - N/A   Clear
11:30 PM 57.2 °F 51.8 °F 82% 30.33 in - NW 4.6 mph - N/A   Clear